sensor_id;sensor_type;location;lat;lon;timestamp;temperature;humidity
6110;DHT22;3085;49.444;11.054;2023-08-17T00:02:04;24.80;99.90
6110;DHT22;3085;49.444;11.054;2023-08-17T00:04:31;24.80;99.90
6110;DHT22;3085;49.444;11.054;2023-08-17T00:06:58;24.70;99.90
6110;DHT22;3085;49.444;11.054;2023-08-17T00:09:25;24.70;99.90
6110;DHT22;3085;49.444;11.054;2023-08-17T00:11:52;24.70;99.90
6110;DHT22;3085;49.444;11.054;2023-08-17T00:14:19;24.80;99.90
6110;DHT22;3085;49.444;11.054;2023-08-17T00:16:49;24.70;99.90
6110;DHT22;3085;49.444;11.054;2023-08-17T00:19:17;24.80;99.90
6110;DHT22;3085;49.444;11.054;2023-08-17T00:21:44;24.70;99.90
6110;DHT22;3085;49.444;11.054;2023-08-17T00:24:11;24.70;99.90
6110;DHT22;3085;49.444;11.054;2023-08-17T00:26:38;24.70;99.90
6110;DHT22;3085;49.444;11.054;2023-08-17T00:29:04;24.70;99.90
6110;DHT22;3085;49.444;11.054;2023-08-17T00:31:31;24.70;99.90
6110;DHT22;3085;49.444;11.054;2023-08-17T00:33:59;24.70;99.90
6110;DHT22;3085;49.444;11.054;2023-08-17T00:36:26;24.70;99.90
6110;DHT22;3085;49.444;11.054;2023-08-17T00:38:52;24.30;99.90
6110;DHT22;3085;49.444;11.054;2023-08-17T00:41:19;24.20;99.90
6110;DHT22;3085;49.444;11.054;2023-08-17T00:43:46;24.20;99.90
6110;DHT22;3085;49.444;11.054;2023-08-17T00:46:13;24.20;99.90
6110;DHT22;3085;49.444;11.054;2023-08-17T00:48:40;24.00;99.90
6110;DHT22;3085;49.444;11.054;2023-08-17T00:51:09;24.10;99.90
6110;DHT22;3085;49.444;11.054;2023-08-17T00:53:36;23.50;99.90
6110;DHT22;3085;49.444;11.054;2023-08-17T00:56:03;23.60;99.90
6110;DHT22;3085;49.444;11.054;2023-08-17T00:58:30;22.10;99.90
6110;DHT22;3085;49.444;11.054;2023-08-17T01:00:58;23.20;99.90
6110;DHT22;3085;49.444;11.054;2023-08-17T01:03:28;22.90;99.90
6110;DHT22;3085;49.444;11.054;2023-08-17T01:05:55;22.80;99.90
6110;DHT22;3085;49.444;11.054;2023-08-17T01:08:24;22.80;99.90
6110;DHT22;3085;49.444;11.054;2023-08-17T01:10:55;22.80;99.90
6110;DHT22;3085;49.444;11.054;2023-08-17T01:13:29;22.90;99.90
6110;DHT22;3085;49.444;11.054;2023-08-17T01:15:58;22.90;99.90
6110;DHT22;3085;49.444;11.054;2023-08-17T01:18:32;22.70;99.90
6110;DHT22;3085;49.444;11.054;2023-08-17T01:21:00;22.60;99.90
6110;DHT22;3085;49.444;11.054;2023-08-17T01:23:29;22.70;99.90
6110;DHT22;3085;49.444;11.054;2023-08-17T01:25:56;22.70;99.90
6110;DHT22;3085;49.444;11.054;2023-08-17T01:28:23;22.90;99.90
6110;DHT22;3085;49.444;11.054;2023-08-17T01:30:57;22.90;99.90
6110;DHT22;3085;49.444;11.054;2023-08-17T01:33:29;23.00;99.90
6110;DHT22;3085;49.444;11.054;2023-08-17T01:36:03;22.90;99.90
6110;DHT22;3085;49.444;11.054;2023-08-17T01:38:33;22.70;99.90
6110;DHT22;3085;49.444;11.054;2023-08-17T01:41:02;23.00;99.90
6110;DHT22;3085;49.444;11.054;2023-08-17T01:43:29;23.10;99.90
6110;DHT22;3085;49.444;11.054;2023-08-17T01:45:56;23.10;99.90
6110;DHT22;3085;49.444;11.054;2023-08-17T01:48:23;23.20;99.90
6110;DHT22;3085;49.444;11.054;2023-08-17T01:50:50;23.10;99.90
6110;DHT22;3085;49.444;11.054;2023-08-17T01:53:17;23.20;99.90
6110;DHT22;3085;49.444;11.054;2023-08-17T01:55:45;23.20;99.90
6110;DHT22;3085;49.444;11.054;2023-08-17T01:58:11;23.40;99.90
6110;DHT22;3085;49.444;11.054;2023-08-17T02:00:38;23.40;99.90
6110;DHT22;3085;49.444;11.054;2023-08-17T02:03:05;23.40;99.90
6110;DHT22;3085;49.444;11.054;2023-08-17T02:05:31;23.50;99.90
6110;DHT22;3085;49.444;11.054;2023-08-17T02:07:58;23.50;99.90
6110;DHT22;3085;49.444;11.054;2023-08-17T02:10:25;23.40;99.90
6110;DHT22;3085;49.444;11.054;2023-08-17T02:12:53;23.50;99.90
6110;DHT22;3085;49.444;11.054;2023-08-17T02:15:19;23.50;99.90
6110;DHT22;3085;49.444;11.054;2023-08-17T02:17:46;23.40;99.90
6110;DHT22;3085;49.444;11.054;2023-08-17T02:20:13;23.40;99.90
6110;DHT22;3085;49.444;11.054;2023-08-17T02:22:40;21.40;99.90
6110;DHT22;3085;49.444;11.054;2023-08-17T02:25:08;23.40;99.90
6110;DHT22;3085;49.444;11.054;2023-08-17T02:27:34;23.50;99.90
6110;DHT22;3085;49.444;11.054;2023-08-17T02:30:03;23.50;99.90
6110;DHT22;3085;49.444;11.054;2023-08-17T02:32:30;23.50;99.90
6110;DHT22;3085;49.444;11.054;2023-08-17T02:34:57;23.40;99.90
6110;DHT22;3085;49.444;11.054;2023-08-17T02:37:23;23.50;99.90
6110;DHT22;3085;49.444;11.054;2023-08-17T02:39:50;23.60;99.90
6110;DHT22;3085;49.444;11.054;2023-08-17T02:42:17;23.60;99.90
6110;DHT22;3085;49.444;11.054;2023-08-17T02:44:43;23.60;99.90
6110;DHT22;3085;49.444;11.054;2023-08-17T02:47:11;23.70;99.90
6110;DHT22;3085;49.444;11.054;2023-08-17T02:49:38;23.60;99.90
6110;DHT22;3085;49.444;11.054;2023-08-17T02:52:05;23.50;99.90
6110;DHT22;3085;49.444;11.054;2023-08-17T02:54:32;23.70;99.90
6110;DHT22;3085;49.444;11.054;2023-08-17T02:56:59;23.70;99.90
6110;DHT22;3085;49.444;11.054;2023-08-17T02:59:26;23.80;99.90
6110;DHT22;3085;49.444;11.054;2023-08-17T03:01:53;23.70;99.90
6110;DHT22;3085;49.444;11.054;2023-08-17T03:04:23;23.80;99.90
6110;DHT22;3085;49.444;11.054;2023-08-17T03:06:49;23.70;99.90
6110;DHT22;3085;49.444;11.054;2023-08-17T03:09:16;23.60;99.90
6110;DHT22;3085;49.444;11.054;2023-08-17T03:11:43;23.60;99.90
6110;DHT22;3085;49.444;11.054;2023-08-17T03:14:10;23.60;99.90
6110;DHT22;3085;49.444;11.054;2023-08-17T03:16:36;23.60;99.90
6110;DHT22;3085;49.444;11.054;2023-08-17T03:19:03;23.60;99.90
6110;DHT22;3085;49.444;11.054;2023-08-17T03:21:33;23.60;99.90
6110;DHT22;3085;49.444;11.054;2023-08-17T03:24:00;23.50;99.90
6110;DHT22;3085;49.444;11.054;2023-08-17T03:26:26;23.60;99.90
6110;DHT22;3085;49.444;11.054;2023-08-17T03:28:53;23.50;99.90
6110;DHT22;3085;49.444;11.054;2023-08-17T03:31:20;23.60;99.90
6110;DHT22;3085;49.444;11.054;2023-08-17T03:33:47;23.60;99.90
6110;DHT22;3085;49.444;11.054;2023-08-17T03:36:14;23.60;99.90
6110;DHT22;3085;49.444;11.054;2023-08-17T03:38:42;23.40;99.90
6110;DHT22;3085;49.444;11.054;2023-08-17T03:41:10;23.40;99.90
6110;DHT22;3085;49.444;11.054;2023-08-17T03:43:37;23.40;99.90
6110;DHT22;3085;49.444;11.054;2023-08-17T03:46:04;23.40;99.90
6110;DHT22;3085;49.444;11.054;2023-08-17T03:48:31;23.40;99.90
6110;DHT22;3085;49.444;11.054;2023-08-17T03:50:58;23.40;99.90
6110;DHT22;3085;49.444;11.054;2023-08-17T03:53:26;23.40;99.90
6110;DHT22;3085;49.444;11.054;2023-08-17T03:55:55;23.50;99.90
6110;DHT22;3085;49.444;11.054;2023-08-17T03:58:21;23.50;99.90
6110;DHT22;3085;49.444;11.054;2023-08-17T04:00:52;23.50;99.90
6110;DHT22;3085;49.444;11.054;2023-08-17T04:03:19;22.70;99.90
6110;DHT22;3085;49.444;11.054;2023-08-17T04:05:46;23.60;99.90
6110;DHT22;3085;49.444;11.054;2023-08-17T04:08:13;23.60;99.90
6110;DHT22;3085;49.444;11.054;2023-08-17T04:10:40;23.60;99.90
6110;DHT22;3085;49.444;11.054;2023-08-17T04:13:08;23.60;99.90
6110;DHT22;3085;49.444;11.054;2023-08-17T04:15:34;23.60;99.90
6110;DHT22;3085;49.444;11.054;2023-08-17T04:18:01;23.50;99.90
6110;DHT22;3085;49.444;11.054;2023-08-17T04:20:28;23.50;99.90
6110;DHT22;3085;49.444;11.054;2023-08-17T04:22:54;23.50;99.90
6110;DHT22;3085;49.444;11.054;2023-08-17T04:25:21;23.50;99.90
6110;DHT22;3085;49.444;11.054;2023-08-17T04:27:48;23.40;99.90
6110;DHT22;3085;49.444;11.054;2023-08-17T04:30:16;23.40;99.90
6110;DHT22;3085;49.444;11.054;2023-08-17T04:32:45;23.50;99.90
6110;DHT22;3085;49.444;11.054;2023-08-17T04:35:16;23.40;99.90
6110;DHT22;3085;49.444;11.054;2023-08-17T04:37:42;23.50;99.90
6110;DHT22;3085;49.444;11.054;2023-08-17T04:40:09;23.40;99.90
6110;DHT22;3085;49.444;11.054;2023-08-17T04:42:36;23.40;99.90
6110;DHT22;3085;49.444;11.054;2023-08-17T04:45:04;23.40;99.90
6110;DHT22;3085;49.444;11.054;2023-08-17T04:47:32;23.40;99.90
6110;DHT22;3085;49.444;11.054;2023-08-17T04:49:59;23.40;99.90
6110;DHT22;3085;49.444;11.054;2023-08-17T04:52:26;23.30;99.90
6110;DHT22;3085;49.444;11.054;2023-08-17T04:54:53;23.30;99.90
6110;DHT22;3085;49.444;11.054;2023-08-17T04:57:20;23.40;99.90
6110;DHT22;3085;49.444;11.054;2023-08-17T04:59:46;23.30;99.90
6110;DHT22;3085;49.444;11.054;2023-08-17T05:02:13;23.30;99.90
6110;DHT22;3085;49.444;11.054;2023-08-17T05:04:41;23.30;99.90
6110;DHT22;3085;49.444;11.054;2023-08-17T05:07:08;23.30;99.90
6110;DHT22;3085;49.444;11.054;2023-08-17T05:09:35;23.40;99.90
6110;DHT22;3085;49.444;11.054;2023-08-17T05:12:01;23.30;99.90
6110;DHT22;3085;49.444;11.054;2023-08-17T05:14:28;23.30;99.90
6110;DHT22;3085;49.444;11.054;2023-08-17T05:16:55;23.30;99.90
6110;DHT22;3085;49.444;11.054;2023-08-17T05:19:23;23.30;99.90
6110;DHT22;3085;49.444;11.054;2023-08-17T05:21:51;23.30;99.90
6110;DHT22;3085;49.444;11.054;2023-08-17T05:24:19;23.20;99.90
6110;DHT22;3085;49.444;11.054;2023-08-17T05:26:46;23.30;99.90
6110;DHT22;3085;49.444;11.054;2023-08-17T05:29:13;23.30;99.90
6110;DHT22;3085;49.444;11.054;2023-08-17T05:31:40;23.30;99.90
6110;DHT22;3085;49.444;11.054;2023-08-17T05:34:06;23.20;99.90
6110;DHT22;3085;49.444;11.054;2023-08-17T05:36:33;23.30;99.90
6110;DHT22;3085;49.444;11.054;2023-08-17T05:39:02;23.40;99.90
6110;DHT22;3085;49.444;11.054;2023-08-17T05:41:29;23.40;99.90
6110;DHT22;3085;49.444;11.054;2023-08-17T05:43:55;23.40;99.90
6110;DHT22;3085;49.444;11.054;2023-08-17T05:46:22;23.60;99.90
6110;DHT22;3085;49.444;11.054;2023-08-17T05:48:49;23.60;99.90
6110;DHT22;3085;49.444;11.054;2023-08-17T05:51:16;23.60;99.90
6110;DHT22;3085;49.444;11.054;2023-08-17T05:53:43;23.70;99.90
6110;DHT22;3085;49.444;11.054;2023-08-17T05:56:11;23.50;99.90
6110;DHT22;3085;49.444;11.054;2023-08-17T05:58:38;23.70;99.90
6110;DHT22;3085;49.444;11.054;2023-08-17T06:01:05;23.70;99.90
6110;DHT22;3085;49.444;11.054;2023-08-17T06:03:33;23.70;99.90
6110;DHT22;3085;49.444;11.054;2023-08-17T06:06:00;23.80;99.90
6110;DHT22;3085;49.444;11.054;2023-08-17T06:08:29;23.80;99.90
6110;DHT22;3085;49.444;11.054;2023-08-17T06:10:56;23.90;99.90
6110;DHT22;3085;49.444;11.054;2023-08-17T06:13:25;23.90;99.90
6110;DHT22;3085;49.444;11.054;2023-08-17T06:15:56;23.90;99.90
6110;DHT22;3085;49.444;11.054;2023-08-17T06:18:23;23.90;99.90
6110;DHT22;3085;49.444;11.054;2023-08-17T06:20:50;24.00;99.90
6110;DHT22;3085;49.444;11.054;2023-08-17T06:23:26;24.00;99.90
6110;DHT22;3085;49.444;11.054;2023-08-17T06:26:02;24.00;99.90
6110;DHT22;3085;49.444;11.054;2023-08-17T06:28:30;24.00;99.90
6110;DHT22;3085;49.444;11.054;2023-08-17T06:30:57;24.00;99.90
6110;DHT22;3085;49.444;11.054;2023-08-17T06:33:24;24.00;99.90
6110;DHT22;3085;49.444;11.054;2023-08-17T06:35:51;24.00;99.90
6110;DHT22;3085;49.444;11.054;2023-08-17T06:38:18;24.10;99.90
6110;DHT22;3085;49.444;11.054;2023-08-17T06:40:45;24.20;99.90
6110;DHT22;3085;49.444;11.054;2023-08-17T06:43:13;24.30;99.90
6110;DHT22;3085;49.444;11.054;2023-08-17T06:45:41;24.20;99.90
6110;DHT22;3085;49.444;11.054;2023-08-17T06:48:08;24.30;99.90
6110;DHT22;3085;49.444;11.054;2023-08-17T06:50:36;24.40;99.90
6110;DHT22;3085;49.444;11.054;2023-08-17T06:53:06;24.50;99.90
6110;DHT22;3085;49.444;11.054;2023-08-17T06:55:33;24.50;99.90
6110;DHT22;3085;49.444;11.054;2023-08-17T06:58:00;24.50;99.90
6110;DHT22;3085;49.444;11.054;2023-08-17T07:00:27;24.60;99.90
6110;DHT22;3085;49.444;11.054;2023-08-17T07:02:55;24.50;99.90
6110;DHT22;3085;49.444;11.054;2023-08-17T07:05:22;24.60;99.90
6110;DHT22;3085;49.444;11.054;2023-08-17T07:07:49;24.60;99.90
6110;DHT22;3085;49.444;11.054;2023-08-17T07:10:16;24.70;99.90
6110;DHT22;3085;49.444;11.054;2023-08-17T07:12:42;24.70;99.90
6110;DHT22;3085;49.444;11.054;2023-08-17T07:15:10;24.90;99.90
6110;DHT22;3085;49.444;11.054;2023-08-17T07:17:37;24.90;99.90
6110;DHT22;3085;49.444;11.054;2023-08-17T07:20:06;25.00;99.90
6110;DHT22;3085;49.444;11.054;2023-08-17T07:22:34;24.90;99.90
6110;DHT22;3085;49.444;11.054;2023-08-17T07:25:01;25.00;99.90
6110;DHT22;3085;49.444;11.054;2023-08-17T07:27:29;25.10;99.90
6110;DHT22;3085;49.444;11.054;2023-08-17T07:29:55;25.20;99.90
6110;DHT22;3085;49.444;11.054;2023-08-17T07:32:22;25.30;99.90
6110;DHT22;3085;49.444;11.054;2023-08-17T07:34:50;25.20;99.90
6110;DHT22;3085;49.444;11.054;2023-08-17T07:37:20;25.20;99.90
6110;DHT22;3085;49.444;11.054;2023-08-17T07:39:47;25.40;99.90
6110;DHT22;3085;49.444;11.054;2023-08-17T07:42:13;26.60;99.90
6110;DHT22;3085;49.444;11.054;2023-08-17T07:44:41;25.40;99.90
6110;DHT22;3085;49.444;11.054;2023-08-17T07:47:07;25.60;99.90
6110;DHT22;3085;49.444;11.054;2023-08-17T07:49:34;25.80;99.90
6110;DHT22;3085;49.444;11.054;2023-08-17T07:52:04;25.70;99.90
6110;DHT22;3085;49.444;11.054;2023-08-17T07:54:33;25.80;99.90
6110;DHT22;3085;49.444;11.054;2023-08-17T07:57:00;25.80;99.90
6110;DHT22;3085;49.444;11.054;2023-08-17T07:59:28;25.80;99.90
6110;DHT22;3085;49.444;11.054;2023-08-17T08:01:55;24.90;99.90
6110;DHT22;3085;49.444;11.054;2023-08-17T08:04:22;26.60;99.90
6110;DHT22;3085;49.444;11.054;2023-08-17T08:06:49;25.80;99.90
6110;DHT22;3085;49.444;11.054;2023-08-17T08:09:16;26.00;99.90
6110;DHT22;3085;49.444;11.054;2023-08-17T08:11:48;26.00;99.90
6110;DHT22;3085;49.444;11.054;2023-08-17T08:14:15;26.10;99.90
6110;DHT22;3085;49.444;11.054;2023-08-17T08:16:44;26.20;99.90
6110;DHT22;3085;49.444;11.054;2023-08-17T08:19:12;26.40;99.90
6110;DHT22;3085;49.444;11.054;2023-08-17T08:21:40;26.40;99.90
6110;DHT22;3085;49.444;11.054;2023-08-17T08:24:07;26.50;99.90
6110;DHT22;3085;49.444;11.054;2023-08-17T08:26:33;25.10;99.90
6110;DHT22;3085;49.444;11.054;2023-08-17T08:29:02;26.80;99.90
6110;DHT22;3085;49.444;11.054;2023-08-17T08:31:32;26.50;99.90
6110;DHT22;3085;49.444;11.054;2023-08-17T08:33:58;27.30;99.90
6110;DHT22;3085;49.444;11.054;2023-08-17T08:36:25;28.10;99.90
6110;DHT22;3085;49.444;11.054;2023-08-17T08:38:52;27.30;99.90
6110;DHT22;3085;49.444;11.054;2023-08-17T08:41:19;27.90;99.90
6110;DHT22;3085;49.444;11.054;2023-08-17T08:43:46;27.60;99.90
6110;DHT22;3085;49.444;11.054;2023-08-17T08:46:16;26.80;99.90
6110;DHT22;3085;49.444;11.054;2023-08-17T08:48:47;27.70;99.90
6110;DHT22;3085;49.444;11.054;2023-08-17T08:51:19;26.80;99.90
6110;DHT22;3085;49.444;11.054;2023-08-17T08:53:54;26.80;99.90
6110;DHT22;3085;49.444;11.054;2023-08-17T08:56:25;26.90;99.90
6110;DHT22;3085;49.444;11.054;2023-08-17T08:58:53;27.00;99.90
6110;DHT22;3085;49.444;11.054;2023-08-17T09:01:24;27.00;99.90
6110;DHT22;3085;49.444;11.054;2023-08-17T09:03:52;27.20;99.90
6110;DHT22;3085;49.444;11.054;2023-08-17T09:06:19;27.10;99.90
6110;DHT22;3085;49.444;11.054;2023-08-17T09:08:49;27.10;99.90
6110;DHT22;3085;49.444;11.054;2023-08-17T09:11:16;27.20;99.90
6110;DHT22;3085;49.444;11.054;2023-08-17T09:13:43;27.20;99.90
6110;DHT22;3085;49.444;11.054;2023-08-17T09:16:10;27.40;99.90
6110;DHT22;3085;49.444;11.054;2023-08-17T09:18:39;27.50;99.90
6110;DHT22;3085;49.444;11.054;2023-08-17T09:21:06;27.40;99.90
6110;DHT22;3085;49.444;11.054;2023-08-17T09:23:33;27.60;99.90
6110;DHT22;3085;49.444;11.054;2023-08-17T09:26:08;27.60;99.90
6110;DHT22;3085;49.444;11.054;2023-08-17T09:28:39;27.70;99.90
6110;DHT22;3085;49.444;11.054;2023-08-17T09:31:06;27.70;99.90
6110;DHT22;3085;49.444;11.054;2023-08-17T09:33:33;27.90;99.90
6110;DHT22;3085;49.444;11.054;2023-08-17T09:36:02;27.70;99.90
6110;DHT22;3085;49.444;11.054;2023-08-17T09:38:29;27.80;99.90
6110;DHT22;3085;49.444;11.054;2023-08-17T09:40:57;27.90;99.90
6110;DHT22;3085;49.444;11.054;2023-08-17T09:43:24;27.90;99.90
6110;DHT22;3085;49.444;11.054;2023-08-17T09:45:54;27.90;99.90
6110;DHT22;3085;49.444;11.054;2023-08-17T09:48:21;28.00;99.90
6110;DHT22;3085;49.444;11.054;2023-08-17T09:50:48;28.00;99.90
6110;DHT22;3085;49.444;11.054;2023-08-17T09:53:17;28.00;99.90
6110;DHT22;3085;49.444;11.054;2023-08-17T09:55:45;28.10;99.90
6110;DHT22;3085;49.444;11.054;2023-08-17T09:58:13;28.10;99.90
6110;DHT22;3085;49.444;11.054;2023-08-17T10:00:44;28.10;99.90
6110;DHT22;3085;49.444;11.054;2023-08-17T10:03:14;28.10;99.90
6110;DHT22;3085;49.444;11.054;2023-08-17T10:05:44;28.20;99.90
6110;DHT22;3085;49.444;11.054;2023-08-17T10:08:12;27.90;99.90
6110;DHT22;3085;49.444;11.054;2023-08-17T10:10:43;28.20;99.90
6110;DHT22;3085;49.444;11.054;2023-08-17T10:13:12;28.40;99.90
6110;DHT22;3085;49.444;11.054;2023-08-17T10:15:45;28.40;99.90
6110;DHT22;3085;49.444;11.054;2023-08-17T10:18:17;28.50;99.90
6110;DHT22;3085;49.444;11.054;2023-08-17T10:20:54;28.50;99.90
6110;DHT22;3085;49.444;11.054;2023-08-17T10:23:27;28.60;99.90
6110;DHT22;3085;49.444;11.054;2023-08-17T10:25:56;28.60;99.90
6110;DHT22;3085;49.444;11.054;2023-08-17T10:28:24;28.60;99.90
6110;DHT22;3085;49.444;11.054;2023-08-17T10:30:51;28.60;99.90
6110;DHT22;3085;49.444;11.054;2023-08-17T10:33:19;28.60;99.90
6110;DHT22;3085;49.444;11.054;2023-08-17T10:35:46;28.40;99.90
6110;DHT22;3085;49.444;11.054;2023-08-17T10:38:15;28.60;99.90
6110;DHT22;3085;49.444;11.054;2023-08-17T10:40:43;28.70;99.90
6110;DHT22;3085;49.444;11.054;2023-08-17T10:43:12;28.80;99.90
6110;DHT22;3085;49.444;11.054;2023-08-17T10:45:39;28.90;99.90
6110;DHT22;3085;49.444;11.054;2023-08-17T10:48:25;29.00;99.90
6110;DHT22;3085;49.444;11.054;2023-08-17T10:51:04;29.00;99.90
6110;DHT22;3085;49.444;11.054;2023-08-17T10:53:37;29.10;99.90
6110;DHT22;3085;49.444;11.054;2023-08-17T10:56:11;29.10;99.90
6110;DHT22;3085;49.444;11.054;2023-08-17T10:58:41;29.30;99.90
6110;DHT22;3085;49.444;11.054;2023-08-17T11:01:08;29.20;99.90
6110;DHT22;3085;49.444;11.054;2023-08-17T11:03:36;29.20;99.90
6110;DHT22;3085;49.444;11.054;2023-08-17T11:06:16;29.10;99.90
6110;DHT22;3085;49.444;11.054;2023-08-17T11:08:55;29.10;99.90
6110;DHT22;3085;49.444;11.054;2023-08-17T11:11:22;29.20;99.90
6110;DHT22;3085;49.444;11.054;2023-08-17T11:13:53;29.20;99.90
6110;DHT22;3085;49.444;11.054;2023-08-17T11:16:20;29.30;99.90
6110;DHT22;3085;49.444;11.054;2023-08-17T11:18:47;29.40;99.90
6110;DHT22;3085;49.444;11.054;2023-08-17T11:21:17;29.40;99.90
6110;DHT22;3085;49.444;11.054;2023-08-17T11:23:44;29.90;99.90
6110;DHT22;3085;49.444;11.054;2023-08-17T11:26:11;29.50;99.90
6110;DHT22;3085;49.444;11.054;2023-08-17T11:28:38;29.60;99.90
6110;DHT22;3085;49.444;11.054;2023-08-17T11:31:09;29.50;99.90
6110;DHT22;3085;49.444;11.054;2023-08-17T11:33:37;29.70;99.90
6110;DHT22;3085;49.444;11.054;2023-08-17T11:36:07;29.70;99.90
6110;DHT22;3085;49.444;11.054;2023-08-17T11:38:36;29.80;99.90
6110;DHT22;3085;49.444;11.054;2023-08-17T11:41:05;29.80;99.90
6110;DHT22;3085;49.444;11.054;2023-08-17T11:43:33;29.70;99.90
6110;DHT22;3085;49.444;11.054;2023-08-17T11:46:01;29.80;99.90
6110;DHT22;3085;49.444;11.054;2023-08-17T11:48:29;29.80;99.90
6110;DHT22;3085;49.444;11.054;2023-08-17T11:50:56;29.80;99.90
6110;DHT22;3085;49.444;11.054;2023-08-17T11:53:23;29.60;99.90
6110;DHT22;3085;49.444;11.054;2023-08-17T11:55:50;29.50;99.90
6110;DHT22;3085;49.444;11.054;2023-08-17T11:58:17;29.70;99.90
6110;DHT22;3085;49.444;11.054;2023-08-17T12:00:44;29.80;99.90
6110;DHT22;3085;49.444;11.054;2023-08-17T12:03:15;29.90;99.90
6110;DHT22;3085;49.444;11.054;2023-08-17T12:05:43;29.90;99.90
6110;DHT22;3085;49.444;11.054;2023-08-17T12:08:12;30.00;99.90
6110;DHT22;3085;49.444;11.054;2023-08-17T12:10:39;30.10;99.90
6110;DHT22;3085;49.444;11.054;2023-08-17T12:13:10;30.30;99.90
6110;DHT22;3085;49.444;11.054;2023-08-17T12:15:38;30.20;99.90
6110;DHT22;3085;49.444;11.054;2023-08-17T12:18:05;30.30;99.90
6110;DHT22;3085;49.444;11.054;2023-08-17T12:20:33;30.40;99.90
6110;DHT22;3085;49.444;11.054;2023-08-17T12:23:03;30.40;99.90
6110;DHT22;3085;49.444;11.054;2023-08-17T12:25:30;30.50;99.90
6110;DHT22;3085;49.444;11.054;2023-08-17T12:27:58;30.60;99.90
6110;DHT22;3085;49.444;11.054;2023-08-17T12:30:26;30.60;99.90
6110;DHT22;3085;49.444;11.054;2023-08-17T12:32:53;30.60;99.90
6110;DHT22;3085;49.444;11.054;2023-08-17T12:35:20;30.50;99.90
6110;DHT22;3085;49.444;11.054;2023-08-17T12:37:49;30.50;99.90
6110;DHT22;3085;49.444;11.054;2023-08-17T12:40:18;30.50;99.90
6110;DHT22;3085;49.444;11.054;2023-08-17T12:42:45;30.50;99.90
6110;DHT22;3085;49.444;11.054;2023-08-17T12:45:12;30.50;99.90
6110;DHT22;3085;49.444;11.054;2023-08-17T12:47:39;30.90;99.90
6110;DHT22;3085;49.444;11.054;2023-08-17T12:50:06;30.60;99.90
6110;DHT22;3085;49.444;11.054;2023-08-17T12:52:33;30.60;99.90
6110;DHT22;3085;49.444;11.054;2023-08-17T12:55:00;30.80;99.90
6110;DHT22;3085;49.444;11.054;2023-08-17T12:57:29;30.90;99.90
6110;DHT22;3085;49.444;11.054;2023-08-17T12:59:55;31.00;99.90
6110;DHT22;3085;49.444;11.054;2023-08-17T13:02:23;31.00;99.90
6110;DHT22;3085;49.444;11.054;2023-08-17T13:04:50;31.10;99.90
6110;DHT22;3085;49.444;11.054;2023-08-17T13:07:16;31.10;99.90
6110;DHT22;3085;49.444;11.054;2023-08-17T13:09:43;31.20;99.90
6110;DHT22;3085;49.444;11.054;2023-08-17T13:12:11;31.20;99.90
6110;DHT22;3085;49.444;11.054;2023-08-17T13:14:40;31.30;99.90
6110;DHT22;3085;49.444;11.054;2023-08-17T13:17:06;31.50;99.90
6110;DHT22;3085;49.444;11.054;2023-08-17T13:19:33;31.50;99.90
6110;DHT22;3085;49.444;11.054;2023-08-17T13:22:00;31.50;99.90
6110;DHT22;3085;49.444;11.054;2023-08-17T13:24:28;31.60;99.90
6110;DHT22;3085;49.444;11.054;2023-08-17T13:26:55;31.60;99.90
6110;DHT22;3085;49.444;11.054;2023-08-17T13:29:22;31.80;99.90
6110;DHT22;3085;49.444;11.054;2023-08-17T13:31:51;31.80;99.90
6110;DHT22;3085;49.444;11.054;2023-08-17T13:34:17;31.80;99.90
6110;DHT22;3085;49.444;11.054;2023-08-17T13:36:44;31.80;99.90
6110;DHT22;3085;49.444;11.054;2023-08-17T13:39:11;31.70;99.90
6110;DHT22;3085;49.444;11.054;2023-08-17T13:41:38;31.80;99.90
6110;DHT22;3085;49.444;11.054;2023-08-17T13:44:06;31.90;99.90
6110;DHT22;3085;49.444;11.054;2023-08-17T13:46:33;32.00;99.90
6110;DHT22;3085;49.444;11.054;2023-08-17T13:49:01;32.00;99.90
6110;DHT22;3085;49.444;11.054;2023-08-17T13:51:27;32.00;99.90
6110;DHT22;3085;49.444;11.054;2023-08-17T13:53:54;32.00;99.90
6110;DHT22;3085;49.444;11.054;2023-08-17T13:56:21;32.00;99.90
6110;DHT22;3085;49.444;11.054;2023-08-17T13:58:48;33.20;99.90
6110;DHT22;3085;49.444;11.054;2023-08-17T14:01:14;32.20;99.90
6110;DHT22;3085;49.444;11.054;2023-08-17T14:03:42;32.10;99.90
6110;DHT22;3085;49.444;11.054;2023-08-17T14:06:10;32.10;99.90
6110;DHT22;3085;49.444;11.054;2023-08-17T14:08:37;32.10;99.90
6110;DHT22;3085;49.444;11.054;2023-08-17T14:11:04;32.00;99.90
6110;DHT22;3085;49.444;11.054;2023-08-17T14:13:31;31.90;99.90
6110;DHT22;3085;49.444;11.054;2023-08-17T14:15:58;32.10;99.90
6110;DHT22;3085;49.444;11.054;2023-08-17T14:18:25;32.10;99.90
6110;DHT22;3085;49.444;11.054;2023-08-17T14:20:52;32.10;99.90
6110;DHT22;3085;49.444;11.054;2023-08-17T14:23:20;32.10;99.90
6110;DHT22;3085;49.444;11.054;2023-08-17T14:25:47;32.00;99.90
6110;DHT22;3085;49.444;11.054;2023-08-17T14:28:13;32.00;99.90
6110;DHT22;3085;49.444;11.054;2023-08-17T14:30:40;31.80;99.90
6110;DHT22;3085;49.444;11.054;2023-08-17T14:33:08;32.10;99.90
6110;DHT22;3085;49.444;11.054;2023-08-17T14:35:35;32.00;99.90
6110;DHT22;3085;49.444;11.054;2023-08-17T14:38:01;31.90;99.90
6110;DHT22;3085;49.444;11.054;2023-08-17T14:40:30;31.80;99.90
6110;DHT22;3085;49.444;11.054;2023-08-17T14:42:58;31.70;99.90
6110;DHT22;3085;49.444;11.054;2023-08-17T14:45:24;31.60;99.90
6110;DHT22;3085;49.444;11.054;2023-08-17T14:47:51;31.50;99.90
6110;DHT22;3085;49.444;11.054;2023-08-17T14:50:18;31.30;99.90
6110;DHT22;3085;49.444;11.054;2023-08-17T14:52:45;31.30;99.90
6110;DHT22;3085;49.444;11.054;2023-08-17T14:55:12;32.10;99.90
6110;DHT22;3085;49.444;11.054;2023-08-17T14:57:41;31.20;99.90
6110;DHT22;3085;49.444;11.054;2023-08-17T15:00:09;31.40;99.90
6110;DHT22;3085;49.444;11.054;2023-08-17T15:02:36;30.90;99.90
6110;DHT22;3085;49.444;11.054;2023-08-17T15:05:03;30.80;99.90
6110;DHT22;3085;49.444;11.054;2023-08-17T15:07:30;30.80;99.90
6110;DHT22;3085;49.444;11.054;2023-08-17T15:09:57;30.70;99.90
6110;DHT22;3085;49.444;11.054;2023-08-17T15:12:24;30.60;99.90
6110;DHT22;3085;49.444;11.054;2023-08-17T15:14:52;30.50;99.90
6110;DHT22;3085;49.444;11.054;2023-08-17T15:17:19;30.50;99.90
6110;DHT22;3085;49.444;11.054;2023-08-17T15:19:46;30.40;99.90
6110;DHT22;3085;49.444;11.054;2023-08-17T15:22:12;30.40;99.90
6110;DHT22;3085;49.444;11.054;2023-08-17T15:24:39;30.30;99.90
6110;DHT22;3085;49.444;11.054;2023-08-17T15:27:06;30.30;99.90
6110;DHT22;3085;49.444;11.054;2023-08-17T15:29:33;28.20;99.90
6110;DHT22;3085;49.444;11.054;2023-08-17T15:32:01;30.30;99.90
6110;DHT22;3085;49.444;11.054;2023-08-17T15:34:27;29.70;99.90
6110;DHT22;3085;49.444;11.054;2023-08-17T15:36:54;28.20;99.90
6110;DHT22;3085;49.444;11.054;2023-08-17T15:39:21;26.90;99.90
6110;DHT22;3085;49.444;11.054;2023-08-17T15:41:48;25.90;99.90
6110;DHT22;3085;49.444;11.054;2023-08-17T15:44:15;25.60;99.90
6110;DHT22;3085;49.444;11.054;2023-08-17T15:46:42;25.30;99.90
6110;DHT22;3085;49.444;11.054;2023-08-17T15:49:10;25.40;99.90